Time;durP1;ratioP1;P1;durP2;ratioP2;P2;SDS_P1;SDS_P2;PMS_P1;PMS_P2;Temp;Humidity;BMP_temperature;BMP_pressure;BME280_temperature;BME280_humidity;BME280_pressure;Samples;Min_cycle;Max_cycle;Signal;HPM_P1;HPM_P2
2022/08/18 00:00:30;;;;;;;;;;;;;;;18.29;82.13;95135.34;5135499;27;1056;-48
2022/08/18 00:03:02;;;;;;;;;;;;;;;18.31;82.16;95146.78;5135478;27;957;-49
2022/08/18 00:05:28;;;;;;;;;;;;;;;18.13;83.00;95154.69;5135419;27;1142;-49
2022/08/18 00:07:54;;;;;;;;;;;;;;;18.20;82.64;95149.31;5135192;27;1144;-49
2022/08/18 00:10:20;;;;;;;;;;;;;;;18.22;82.38;95149.94;5135169;27;1020;-49
2022/08/18 00:12:46;;;;;;;;;;;;;;;18.16;82.16;95148.88;5134987;27;1079;-49
2022/08/18 00:15:13;;;;;;;;;;;;;;;17.96;82.50;95148.88;5135019;27;1016;-49
2022/08/18 00:17:40;;;;;;;;;;;;;;;17.74;83.56;95151.72;5134913;27;1933;-49
2022/08/18 00:20:08;;;;;;;;;;;;;;;17.71;84.42;95145.91;5135100;27;969;-49
2022/08/18 00:22:34;;;;;;;;;;;;;;;17.76;84.03;95144.25;5134463;27;1869;-49
2022/08/18 00:25:00;;;;;;;;;;;;;;;17.59;84.07;95144.84;5134950;27;1188;-49
2022/08/18 00:27:27;;;;;;;;;;;;;;;17.46;84.59;95142.94;5134851;27;1043;-49
2022/08/18 00:29:54;;;;;;;;;;;;;;;17.45;84.78;95143.97;5135101;27;1003;-49
2022/08/18 00:32:24;;;;;;;;;;;;;;;17.44;84.84;95142.31;5134725;27;1030;-49
2022/08/18 00:34:51;;;;;;;;;;;;;;;17.61;84.35;95145.47;5134886;27;956;-48
2022/08/18 00:37:17;;;;;;;;;;;;;;;17.63;84.62;95144.22;5134375;27;1993;-48
2022/08/18 00:39:44;;;;;;;;;;;;;;;17.63;84.22;95146.09;5134678;27;1135;-48
2022/08/18 00:42:19;;;;;;;;;;;;;;;17.44;84.33;95150.44;5134632;27;980;-49
2022/08/18 00:44:45;;;;;;;;;;;;;;;17.54;84.42;95148.97;5148254;27;1161;-49
2022/08/18 00:47:11;;;;;;;;;;;;;;;17.59;84.98;95151.09;5155245;27;967;-48
2022/08/18 00:49:38;;;;;;;;;;;;;;;17.55;85.32;95149.84;5155149;27;1080;-49
2022/08/18 00:52:05;;;;;;;;;;;;;;;17.58;84.59;95148.59;5155436;27;977;-49
2022/08/18 00:54:33;;;;;;;;;;;;;;;17.57;84.28;95139.66;5155438;27;1039;-49
2022/08/18 00:57:02;;;;;;;;;;;;;;;17.46;84.96;95142.94;5155118;27;1976;-49
2022/08/18 00:59:46;;;;;;;;;;;;;;;17.46;85.00;95145.66;5155099;27;1048;-49
2022/08/18 01:02:25;;;;;;;;;;;;;;;17.43;85.20;95151.44;5154791;27;961;-49
2022/08/18 01:04:55;;;;;;;;;;;;;;;17.53;84.76;95147.31;5155028;27;1028;-49
2022/08/18 01:07:25;;;;;;;;;;;;;;;17.59;84.56;95148.38;5155228;27;965;-49
2022/08/18 01:09:51;;;;;;;;;;;;;;;17.46;84.82;95145.66;5154977;27;1056;-49
2022/08/18 01:12:18;;;;;;;;;;;;;;;17.29;85.95;95140.59;5154754;27;1024;-48
2022/08/18 01:14:44;;;;;;;;;;;;;;;17.38;85.26;95160.19;5154955;27;1059;-49
2022/08/18 01:22:46;;;;;;;;;;;;;;;17.48;85.33;95147.09;5154803;27;981;-49
2022/08/18 01:28:01;;;;;;;;;;;;;;;17.16;85.54;95164.88;5154860;27;968;-49
2022/08/18 01:30:28;;;;;;;;;;;;;;;17.07;85.90;95156.09;5154672;27;1040;-49
2022/08/18 01:32:54;;;;;;;;;;;;;;;17.14;85.57;95159.66;5155395;27;1880;-49
2022/08/18 01:35:22;;;;;;;;;;;;;;;17.17;85.68;95158.44;5158967;27;1967;-49
2022/08/18 01:37:48;;;;;;;;;;;;;;;17.18;85.78;95165.50;5158691;27;1909;-49
2022/08/18 01:40:15;;;;;;;;;;;;;;;17.35;85.26;95158.69;5159025;27;976;-49
2022/08/18 01:42:44;;;;;;;;;;;;;;;17.52;84.51;95169.16;5158951;27;1018;-49
2022/08/18 01:45:11;;;;;;;;;;;;;;;17.52;84.41;95167.28;5141620;27;1168;-49
2022/08/18 01:47:39;;;;;;;;;;;;;;;17.37;84.55;95162.03;5138025;27;996;-49
2022/08/18 01:50:06;;;;;;;;;;;;;;;17.20;84.84;95157.19;5137783;27;1245;-49
2022/08/18 01:52:34;;;;;;;;;;;;;;;17.07;85.49;95155.28;5137690;27;1016;-49
2022/08/18 01:55:00;;;;;;;;;;;;;;;17.14;84.91;95150.72;5137920;27;1016;-49
2022/08/18 01:57:27;;;;;;;;;;;;;;;17.21;85.05;95154.31;5137496;27;2008;-49
2022/08/18 01:59:53;;;;;;;;;;;;;;;17.05;85.56;95149.25;5137805;27;1032;-48
2022/08/18 02:02:23;;;;;;;;;;;;;;;17.04;85.97;95158.38;5137713;27;1020;-48
2022/08/18 02:04:53;;;;;;;;;;;;;;;17.11;85.84;95157.38;5137786;27;1030;-49
2022/08/18 02:07:19;;;;;;;;;;;;;;;17.08;86.33;95160.47;5137520;27;1060;-49
2022/08/18 02:09:45;;;;;;;;;;;;;;;17.11;85.69;95161.94;5137801;27;1183;-48
2022/08/18 02:12:12;;;;;;;;;;;;;;;17.08;85.71;95160.47;5137754;27;1008;-49
2022/08/18 02:14:38;;;;;;;;;;;;;;;17.08;85.98;95167.75;5137533;27;1082;-49
2022/08/18 02:17:06;;;;;;;;;;;;;;;16.92;85.90;95158.97;5137446;27;1914;-49
2022/08/18 02:19:37;;;;;;;;;;;;;;;17.01;85.93;95156.06;5137232;27;1110;-49
2022/08/18 02:22:03;;;;;;;;;;;;;;;17.10;85.56;95154.88;5137327;27;969;-49
2022/08/18 02:24:29;;;;;;;;;;;;;;;17.09;85.59;95151.34;5137226;27;1130;-49
2022/08/18 02:26:56;;;;;;;;;;;;;;;16.98;85.71;95152.75;5137316;27;901;-49
2022/08/18 02:29:22;;;;;;;;;;;;;;;16.91;85.89;95157.28;5137147;27;963;-49
2022/08/18 02:31:48;;;;;;;;;;;;;;;16.80;86.41;95157.81;5137333;27;973;-49
2022/08/18 02:34:14;;;;;;;;;;;;;;;16.69;87.48;95159.19;5136893;27;987;-48
2022/08/18 02:36:40;;;;;;;;;;;;;;;16.75;86.88;95153.03;5137056;27;1996;-49
2022/08/18 02:39:06;;;;;;;;;;;;;;;16.96;86.11;95144.00;5136818;27;1854;-48
2022/08/18 02:41:32;;;;;;;;;;;;;;;16.85;86.32;95152.69;5137210;27;957;-48
2022/08/18 02:43:58;;;;;;;;;;;;;;;16.79;87.05;95151.59;5143486;27;1866;-48
2022/08/18 02:46:25;;;;;;;;;;;;;;;16.84;86.79;95155.56;5157705;27;1042;-48
2022/08/18 02:48:51;;;;;;;;;;;;;;;16.89;87.07;95155.81;5157271;27;1258;-49
2022/08/18 02:51:17;;;;;;;;;;;;;;;16.84;87.12;95158.28;5157726;27;1027;-48
2022/08/18 02:53:44;;;;;;;;;;;;;;;16.67;87.11;95161.25;5157627;27;1075;-48
2022/08/18 02:56:28;;;;;;;;;;;;;;;16.59;87.38;95159.56;5157604;27;952;-48
2022/08/18 02:58:58;;;;;;;;;;;;;;;16.69;87.55;95155.66;5157194;27;1967;-48
2022/08/18 03:01:26;;;;;;;;;;;;;;;16.65;87.13;95154.41;5157297;27;1031;-49
2022/08/18 03:03:53;;;;;;;;;;;;;;;16.50;87.39;95149.94;5157380;27;1067;-48
2022/08/18 03:06:19;;;;;;;;;;;;;;;16.49;87.47;95156.38;5157214;27;1079;-48
2022/08/18 03:08:49;;;;;;;;;;;;;;;16.52;87.63;95152.44;5157244;27;1009;-49
2022/08/18 03:11:16;;;;;;;;;;;;;;;16.56;87.58;95156.41;5157099;27;1047;-49
2022/08/18 03:13:42;;;;;;;;;;;;;;;16.60;87.10;95157.72;5157103;27;969;-49
2022/08/18 03:16:08;;;;;;;;;;;;;;;16.65;87.38;95151.72;5156958;27;1056;-49
2022/08/18 03:18:34;;;;;;;;;;;;;;;16.60;87.35;95163.13;5157236;27;1988;-48
2022/08/18 03:21:04;;;;;;;;;;;;;;;16.59;87.90;95162.25;5157050;27;975;-48
2022/08/18 03:23:30;;;;;;;;;;;;;;;16.62;87.85;95169.16;5157147;27;1031;-48
2022/08/18 03:25:56;;;;;;;;;;;;;;;16.47;87.71;95171.94;5156680;27;1873;-48
2022/08/18 03:28:22;;;;;;;;;;;;;;;16.37;87.75;95161.50;5156751;27;1028;-48
2022/08/18 03:30:48;;;;;;;;;;;;;;;16.33;87.90;95171.03;5156579;27;1114;-48
2022/08/18 03:33:14;;;;;;;;;;;;;;;16.40;87.80;95168.38;5156651;27;1072;-48
2022/08/18 03:35:40;;;;;;;;;;;;;;;16.39;87.98;95181.03;5156687;27;1032;-48
2022/08/18 03:38:07;;;;;;;;;;;;;;;16.39;88.01;95178.31;5156630;27;1918;-48
2022/08/18 03:40:33;;;;;;;;;;;;;;;16.51;87.61;95175.09;5156412;27;1064;-48
2022/08/18 03:43:05;;;;;;;;;;;;;;;16.54;86.79;95177.38;5156641;27;1051;-48
2022/08/18 03:45:32;;;;;;;;;;;;;;;16.49;87.18;95175.28;5136090;27;1297;-48
2022/08/18 03:47:59;;;;;;;;;;;;;;;16.48;87.22;95181.69;5136170;27;1044;-48
2022/08/18 03:50:26;;;;;;;;;;;;;;;16.43;87.29;95186.88;5135295;27;1108;-48
2022/08/18 03:52:52;;;;;;;;;;;;;;;16.31;88.04;95185.72;5135784;27;1047;-48
2022/08/18 03:55:18;;;;;;;;;;;;;;;16.19;88.39;95194.34;5134996;27;1100;-48
2022/08/18 03:57:44;;;;;;;;;;;;;;;16.07;89.56;95193.22;5135258;27;1921;-48
2022/08/18 04:00:11;;;;;;;;;;;;;;;16.21;89.51;95191.47;5135180;27;1117;-48
2022/08/18 04:02:37;;;;;;;;;;;;;;;16.42;88.30;95192.47;5135439;27;1032;-48
2022/08/18 04:05:04;;;;;;;;;;;;;;;16.55;87.47;95193.38;5135320;27;983;-48
2022/08/18 04:07:30;;;;;;;;;;;;;;;16.69;87.38;95186.19;5135520;27;1043;-48
2022/08/18 04:09:56;;;;;;;;;;;;;;;16.88;86.60;95187.38;5135221;27;1004;-47
2022/08/18 04:12:22;;;;;;;;;;;;;;;16.84;86.93;95188.81;5135187;27;1055;-48
2022/08/18 04:14:49;;;;;;;;;;;;;;;16.69;87.32;95190.75;5135024;27;995;-48
2022/08/18 04:17:23;;;;;;;;;;;;;;;16.63;87.83;95203.19;5135130;27;1921;-47
2022/08/18 04:19:53;;;;;;;;;;;;;;;16.64;88.26;95207.56;5135267;27;983;-47
2022/08/18 04:22:19;;;;;;;;;;;;;;;16.76;88.14;95202.44;5135007;27;1045;-48
2022/08/18 04:24:45;;;;;;;;;;;;;;;16.92;87.43;95201.31;5135154;27;980;-48
2022/08/18 04:27:11;;;;;;;;;;;;;;;17.12;87.75;95201.44;5135240;27;1031;-48
2022/08/18 04:29:37;;;;;;;;;;;;;;;17.28;87.47;95203.81;5135178;27;979;-48
2022/08/18 04:32:03;;;;;;;;;;;;;;;17.32;87.26;95205.06;5134841;27;1024;-48
2022/08/18 04:34:32;;;;;;;;;;;;;;;17.40;87.83;95205.94;5135019;27;980;-48
2022/08/18 04:36:58;;;;;;;;;;;;;;;17.51;87.61;95202.59;5134670;27;1906;-47
2022/08/18 04:39:24;;;;;;;;;;;;;;;17.59;87.21;95207.03;5134744;27;959;-48
2022/08/18 04:41:50;;;;;;;;;;;;;;;17.60;87.59;95211.38;5134516;27;1028;-48
2022/08/18 04:44:17;;;;;;;;;;;;;;;17.77;87.12;95201.84;5144218;27;1169;-48
2022/08/18 04:46:46;;;;;;;;;;;;;;;17.92;87.12;95207.94;5155378;27;1063;-48
2022/08/18 04:49:12;;;;;;;;;;;;;;;18.00;87.44;95206.91;5155239;27;1261;-48
2022/08/18 04:51:43;;;;;;;;;;;;;;;18.22;86.75;95204.88;5155276;27;965;-48
2022/08/18 04:54:11;;;;;;;;;;;;;;;18.44;85.77;95210.94;5155268;27;948;-48
2022/08/18 04:56:37;;;;;;;;;;;;;;;18.51;86.28;95219.03;5154948;27;1087;-48
2022/08/18 04:59:08;;;;;;;;;;;;;;;18.62;85.14;95218.41;5155288;27;1909;-48
2022/08/18 05:01:38;;;;;;;;;;;;;;;18.81;85.79;95213.22;5155011;27;1036;-48
2022/08/18 05:04:04;;;;;;;;;;;;;;;18.90;87.29;95211.94;5155205;27;1028;-48
2022/08/18 05:06:31;;;;;;;;;;;;;;;18.85;87.48;95222.56;5154936;27;1040;-48
2022/08/18 05:08:59;;;;;;;;;;;;;;;18.94;86.09;95224.03;5154174;27;995;-48
2022/08/18 05:11:27;;;;;;;;;;;;;;;19.14;85.20;95215.81;5155000;27;1043;-48
2022/08/18 05:13:55;;;;;;;;;;;;;;;19.31;82.77;95214.34;5155018;27;1887;-48
2022/08/18 05:16:22;;;;;;;;;;;;;;;19.44;83.22;95212.59;5154853;27;1051;-48
2022/08/18 05:18:48;;;;;;;;;;;;;;;19.57;81.01;95223.41;5154992;27;1996;-48
2022/08/18 05:21:14;;;;;;;;;;;;;;;19.73;81.25;95223.97;5154700;27;988;-48
2022/08/18 05:23:41;;;;;;;;;;;;;;;19.86;81.66;95224.75;5154813;27;1107;-48
2022/08/18 05:26:07;;;;;;;;;;;;;;;20.02;81.12;95234.25;5154861;27;1032;-48
2022/08/18 05:28:36;;;;;;;;;;;;;;;20.09;81.64;95234.22;5154992;27;1075;-48
2022/08/18 05:31:10;;;;;;;;;;;;;;;20.08;80.98;95229.84;5154739;27;1012;-48
2022/08/18 05:33:38;;;;;;;;;;;;;;;20.17;80.73;95227.72;5154822;27;972;-48
2022/08/18 05:36:09;;;;;;;;;;;;;;;20.35;79.86;95235.09;5154659;27;1028;-48
2022/08/18 05:38:53;;;;;;;;;;;;;;;20.47;77.68;95231.44;5154835;27;1914;-47
2022/08/18 05:41:29;;;;;;;;;;;;;;;20.46;77.75;95239.81;5154538;27;1213;-48
2022/08/18 05:43:56;;;;;;;;;;;;;;;20.46;77.44;95227.06;5148330;27;1217;-48
2022/08/18 05:46:25;;;;;;;;;;;;;;;20.52;77.47;95233.50;5133791;28;1869;-48
2022/08/18 05:48:51;;;;;;;;;;;;;;;20.66;75.97;95236.97;5133685;28;1092;-48
2022/08/18 05:51:37;;;;;;;;;;;;;;;20.72;76.17;95237.97;5133850;28;1100;-48
2022/08/18 05:56:49;;;;;;;;;;;;;;;20.78;76.57;95231.66;5133762;28;1905;-48
2022/08/18 05:59:18;;;;;;;;;;;;;;;20.84;76.39;95236.19;5133754;28;1125;-48
2022/08/18 06:01:50;;;;;;;;;;;;;;;21.06;76.58;95240.16;5133692;28;1016;-48
2022/08/18 06:04:22;;;;;;;;;;;;;;;21.26;75.14;95236.38;5133878;28;1024;-49
2022/08/18 06:06:48;;;;;;;;;;;;;;;21.44;76.32;95232.88;5133799;28;1079;-48
2022/08/18 06:09:21;;;;;;;;;;;;;;;21.58;75.95;95237.09;5133747;28;1019;-48
2022/08/18 06:11:48;;;;;;;;;;;;;;;21.83;75.47;95230.72;5133665;28;1036;-48
2022/08/18 06:14:14;;;;;;;;;;;;;;;21.91;74.74;95235.00;5133785;28;1056;-48
2022/08/18 06:16:46;;;;;;;;;;;;;;;21.94;72.24;95227.22;5133692;28;933;-48
2022/08/18 06:19:15;;;;;;;;;;;;;;;21.98;74.23;95235.75;5134717;27;975;-48
2022/08/18 06:21:41;;;;;;;;;;;;;;;22.25;74.14;95230.78;5137581;27;1032;-48
2022/08/18 06:24:26;;;;;;;;;;;;;;;22.34;74.22;95234.84;5137125;27;1269;-48
2022/08/18 06:26:52;;;;;;;;;;;;;;;22.47;72.79;95233.00;5137528;27;1041;-48
2022/08/18 06:29:24;;;;;;;;;;;;;;;22.55;71.53;95230.75;5137254;27;999;-49
2022/08/18 06:32:02;;;;;;;;;;;;;;;22.79;71.83;95239.78;5137372;27;979;-49
2022/08/18 06:34:47;;;;;;;;;;;;;;;23.03;71.68;95239.84;5137034;27;1130;-49
2022/08/18 06:37:13;;;;;;;;;;;;;;;23.18;69.75;95229.28;5136967;27;1992;-49
2022/08/18 06:39:44;;;;;;;;;;;;;;;23.46;70.15;95240.50;5136915;27;1091;-49
2022/08/18 06:42:10;;;;;;;;;;;;;;;23.59;68.87;95246.53;5136943;27;1056;-49
2022/08/18 06:44:44;;;;;;;;;;;;;;;23.80;68.05;95236.06;5149025;27;1145;-49
2022/08/18 06:47:15;;;;;;;;;;;;;;;24.03;68.34;95234.34;5157652;27;969;-49
2022/08/18 06:49:47;;;;;;;;;;;;;;;24.32;67.70;95232.41;5157512;27;1274;-49
2022/08/18 06:52:17;;;;;;;;;;;;;;;24.45;66.69;95225.81;5157694;27;1285;-49
2022/08/18 06:54:43;;;;;;;;;;;;;;;24.75;65.59;95231.00;5157447;27;1289;-49
2022/08/18 06:57:21;;;;;;;;;;;;;;;24.93;65.25;95233.50;5157447;27;2000;-49
2022/08/18 06:59:53;;;;;;;;;;;;;;;25.31;64.28;95231.09;5157265;27;1044;-50
2022/08/18 07:02:23;;;;;;;;;;;;;;;25.58;63.30;95239.38;5157618;27;975;-49
2022/08/18 07:05:04;;;;;;;;;;;;;;;25.77;62.31;95225.41;5157337;27;1047;-49
2022/08/18 07:07:38;;;;;;;;;;;;;;;25.97;61.01;95222.94;5157435;27;949;-49
2022/08/18 07:10:06;;;;;;;;;;;;;;;26.06;59.35;95220.56;5157108;27;1018;-49
2022/08/18 07:12:33;;;;;;;;;;;;;;;26.11;60.40;95220.63;5157225;27;1071;-49
2022/08/18 07:15:00;;;;;;;;;;;;;;;26.29;60.19;95217.53;5157227;27;973;-49
2022/08/18 07:17:36;;;;;;;;;;;;;;;26.58;59.00;95224.63;5157145;27;1910;-49
2022/08/18 07:20:21;;;;;;;;;;;;;;;26.69;58.79;95220.94;5156982;27;1067;-49
2022/08/18 07:22:56;;;;;;;;;;;;;;;26.82;59.21;95216.94;5156997;27;965;-49
2022/08/18 07:25:25;;;;;;;;;;;;;;;27.03;58.45;95216.00;5156954;27;1011;-49
2022/08/18 07:27:54;;;;;;;;;;;;;;;27.19;57.40;95222.41;5157093;27;1031;-49
2022/08/18 07:30:20;;;;;;;;;;;;;;;27.24;57.44;95211.47;5155855;27;976;-49
2022/08/18 07:32:59;;;;;;;;;;;;;;;27.29;57.66;95218.13;5156621;27;1024;-50
2022/08/18 07:35:43;;;;;;;;;;;;;;;27.19;56.80;95214.19;5156506;27;972;-49
2022/08/18 07:38:16;;;;;;;;;;;;;;;27.21;57.71;95216.69;5156768;27;1914;-49
2022/08/18 07:40:50;;;;;;;;;;;;;;;27.31;57.17;95214.00;5156638;27;1016;-49
2022/08/18 07:43:19;;;;;;;;;;;;;;;27.33;56.73;95214.56;5155829;27;1211;-49
2022/08/18 07:45:45;;;;;;;;;;;;;;;27.35;58.06;95217.88;5135625;27;1075;-50
2022/08/18 07:48:18;;;;;;;;;;;;;;;27.24;59.47;95213.38;5135937;27;1031;-50
2022/08/18 07:50:54;;;;;;;;;;;;;;;27.04;59.08;95216.84;5135477;27;1084;-50
2022/08/18 07:53:23;;;;;;;;;;;;;;;26.97;60.45;95210.72;5135807;27;949;-49
2022/08/18 07:55:52;;;;;;;;;;;;;;;27.07;60.25;95214.38;5135567;27;1094;-50
2022/08/18 07:58:21;;;;;;;;;;;;;;;26.98;59.87;95210.47;5135404;27;1905;-50
2022/08/18 08:00:47;;;;;;;;;;;;;;;26.89;59.88;95209.31;5135337;27;1004;-49
2022/08/18 08:03:25;;;;;;;;;;;;;;;26.97;60.19;95219.78;5135621;27;953;-50
2022/08/18 08:05:51;;;;;;;;;;;;;;;27.00;59.74;95213.78;5135228;27;1016;-49
2022/08/18 08:08:17;;;;;;;;;;;;;;;26.95;59.47;95218.41;5135377;27;1080;-49
2022/08/18 08:11:03;;;;;;;;;;;;;;;26.99;60.49;95212.13;5135153;27;1122;-50
2022/08/18 08:13:38;;;;;;;;;;;;;;;27.10;58.15;95213.03;5135337;27;1761;-49
2022/08/18 08:16:13;;;;;;;;;;;;;;;27.21;61.58;95203.78;5135141;27;1053;-49
2022/08/18 08:18:45;;;;;;;;;;;;;;;27.43;60.22;95203.66;5135103;27;1905;-50
2022/08/18 08:21:15;;;;;;;;;;;;;;;27.64;58.12;95201.84;5134964;27;1031;-50
2022/08/18 08:23:41;;;;;;;;;;;;;;;27.75;58.42;95204.63;5135389;27;1048;-50
2022/08/18 08:26:22;;;;;;;;;;;;;;;27.80;59.34;95202.72;5134796;27;1865;-50
2022/08/18 08:28:51;;;;;;;;;;;;;;;27.80;58.50;95191.75;5135153;27;1044;-50
2022/08/18 08:31:20;;;;;;;;;;;;;;;27.82;57.79;95192.28;5134760;27;1035;-51
2022/08/18 08:33:52;;;;;;;;;;;;;;;27.95;57.38;95195.69;5134868;27;1041;-51
2022/08/18 08:36:30;;;;;;;;;;;;;;;28.07;57.70;95196.25;5134884;27;1027;-51
2022/08/18 08:39:00;;;;;;;;;;;;;;;28.12;57.77;95199.03;5134755;27;2014;-50
2022/08/18 08:41:41;;;;;;;;;;;;;;;28.18;56.56;95199.88;5134625;27;1059;-51
2022/08/18 08:44:07;;;;;;;;;;;;;;;28.30;57.58;95196.88;5142584;27;1109;-50
2022/08/18 08:46:43;;;;;;;;;;;;;;;28.34;57.59;95187.81;5155157;27;973;-51
2022/08/18 08:49:24;;;;;;;;;;;;;;;28.42;57.29;95192.75;5155222;27;1109;-51
2022/08/18 08:51:56;;;;;;;;;;;;;;;28.53;55.85;95182.66;5155347;27;957;-50
2022/08/18 08:54:26;;;;;;;;;;;;;;;28.58;57.17;95179.06;5155318;27;1052;-50
2022/08/18 08:56:54;;;;;;;;;;;;;;;28.69;56.40;95177.16;5154961;27;1901;-51
2022/08/18 08:59:21;;;;;;;;;;;;;;;28.86;53.75;95177.69;5155402;27;1039;-51
2022/08/18 09:02:02;;;;;;;;;;;;;;;28.95;54.07;95173.28;5155225;27;973;-50
2022/08/18 09:04:40;;;;;;;;;;;;;;;29.04;54.38;95175.47;5155267;27;1032;-51
2022/08/18 09:07:06;;;;;;;;;;;;;;;29.16;52.88;95167.78;5154969;27;1063;-51
2022/08/18 09:09:32;;;;;;;;;;;;;;;29.26;53.02;95155.91;5155010;27;1018;-50
2022/08/18 09:12:21;;;;;;;;;;;;;;;29.33;52.94;95162.78;5155102;27;1028;-51
2022/08/18 09:15:01;;;;;;;;;;;;;;;29.45;50.78;95151.44;5155041;27;1024;-50
2022/08/18 09:17:33;;;;;;;;;;;;;;;29.49;48.40;95154.47;5154850;27;1909;-50
2022/08/18 09:20:05;;;;;;;;;;;;;;;29.47;46.09;95152.00;5154807;27;1024;-51
2022/08/18 09:22:37;;;;;;;;;;;;;;;29.54;47.25;95148.97;5154838;27;1056;-51
2022/08/18 09:25:28;;;;;;;;;;;;;;;29.58;47.65;95152.78;5154947;27;978;-50
2022/08/18 09:28:15;;;;;;;;;;;;;;;29.67;44.98;95142.00;5155440;27;1015;-50
2022/08/18 09:30:45;;;;;;;;;;;;;;;29.78;45.19;95136.22;5154712;27;1103;-51
2022/08/18 09:33:14;;;;;;;;;;;;;;;29.94;47.46;95138.88;5154916;27;1016;-51
2022/08/18 09:36:05;;;;;;;;;;;;;;;29.96;47.82;95134.72;5155125;27;952;-50
2022/08/18 09:41:32;;;;;;;;;;;;;;;29.98;45.88;95134.44;5154810;27;1048;-51
2022/08/18 09:44:10;;;;;;;;;;;;;;;30.10;45.91;95129.41;5148000;27;1223;-51
2022/08/18 09:46:42;;;;;;;;;;;;;;;30.21;45.46;95123.84;5133839;28;1071;-51
2022/08/18 09:49:21;;;;;;;;;;;;;;;30.34;44.83;95124.03;5133657;28;1230;-51
2022/08/18 09:51:48;;;;;;;;;;;;;;;30.36;45.36;95126.50;5133967;28;940;-50
2022/08/18 09:54:16;;;;;;;;;;;;;;;30.28;46.89;95125.16;5135325;27;1043;-51
2022/08/18 09:56:48;;;;;;;;;;;;;;;30.28;45.68;95124.31;5137807;27;1024;-51
2022/08/18 09:59:33;;;;;;;;;;;;;;;30.24;44.54;95129.59;5137857;27;1905;-51
2022/08/18 10:02:00;;;;;;;;;;;;;;;30.11;44.45;95119.22;5137944;27;1019;-51
2022/08/18 10:04:28;;;;;;;;;;;;;;;30.06;42.56;95109.03;5137956;27;972;-50
2022/08/18 10:07:13;;;;;;;;;;;;;;;30.15;43.78;95107.31;5137613;27;1944;-50
2022/08/18 10:09:42;;;;;;;;;;;;;;;30.31;42.73;95104.44;5137761;27;1850;-51
2022/08/18 10:12:11;;;;;;;;;;;;;;;30.29;40.62;95098.41;5137428;27;977;-51
2022/08/18 10:14:56;;;;;;;;;;;;;;;30.26;41.44;95093.44;5137850;27;1056;-51
2022/08/18 10:17:22;;;;;;;;;;;;;;;30.23;43.02;95091.28;5137420;27;1933;-51
2022/08/18 10:20:23;;;;;;;;;;;;;;;30.31;41.58;95087.91;5137653;27;962;-50
2022/08/18 10:22:49;;;;;;;;;;;;;;;30.47;41.58;95096.91;5033880;28;1202;-50
2022/08/18 10:25:33;;;;;;;;;;;;;;;30.58;42.77;95092.13;5116514;27;1195;-50
2022/08/18 10:28:04;;;;;;;;;;;;;;;30.48;43.05;95087.53;5137360;27;999;-51
2022/08/18 10:30:33;;;;;;;;;;;;;;;30.45;41.90;95083.41;5137395;27;1044;-50
2022/08/18 10:33:00;;;;;;;;;;;;;;;30.50;41.24;95080.59;5137024;27;1033;-51
2022/08/18 10:35:35;;;;;;;;;;;;;;;30.50;42.76;95085.28;5137109;27;945;-51
2022/08/18 10:38:04;;;;;;;;;;;;;;;30.48;42.68;95082.81;5137123;27;1909;-51
2022/08/18 10:40:32;;;;;;;;;;;;;;;30.49;42.81;95078.16;5137247;27;961;-51
2022/08/18 10:43:09;;;;;;;;;;;;;;;30.50;42.07;95079.78;5137023;27;968;-50
2022/08/18 10:45:44;;;;;;;;;;;;;;;30.45;42.43;95093.59;5157504;27;1161;-51
2022/08/18 10:48:13;;;;;;;;;;;;;;;30.51;43.16;95085.00;5157453;27;1106;-50
2022/08/18 10:50:57;;;;;;;;;;;;;;;30.48;43.02;95080.06;5157553;27;1211;-51
2022/08/18 10:53:38;;;;;;;;;;;;;;;30.43;42.23;95071.00;5157409;27;1031;-51
2022/08/18 10:56:04;;;;;;;;;;;;;;;30.42;41.27;95069.38;5157448;27;1031;-51
2022/08/18 10:58:30;;;;;;;;;;;;;;;30.47;40.28;95063.81;5157469;27;1996;-50
2022/08/18 11:00:59;;;;;;;;;;;;;;;30.59;42.64;95060.69;5157475;27;1072;-50
2022/08/18 11:03:39;;;;;;;;;;;;;;;30.58;43.14;95075.56;5157315;27;984;-50
2022/08/18 11:06:13;;;;;;;;;;;;;;;30.59;42.23;95063.44;5157198;27;1059;-51
2022/08/18 11:08:44;;;;;;;;;;;;;;;30.64;42.64;95064.22;5157150;27;1036;-51
2022/08/18 11:11:11;;;;;;;;;;;;;;;30.66;41.41;95066.69;5157455;27;1044;-50
2022/08/18 11:13:49;;;;;;;;;;;;;;;30.65;40.40;95065.84;5157227;27;979;-50
2022/08/18 11:16:32;;;;;;;;;;;;;;;30.69;41.24;95061.38;5157068;27;915;-51
2022/08/18 11:19:19;;;;;;;;;;;;;;;30.65;41.58;95068.59;5156863;27;1913;-50
2022/08/18 11:21:45;;;;;;;;;;;;;;;30.69;42.43;95049.53;5157327;27;952;-50
2022/08/18 11:24:11;;;;;;;;;;;;;;;30.79;40.36;95057.72;5156941;27;1040;-50
2022/08/18 11:26:39;;;;;;;;;;;;;;;30.89;40.00;95048.50;5156948;27;1020;-51
2022/08/18 11:29:20;;;;;;;;;;;;;;;30.95;39.02;95044.59;5156694;27;1066;-51
2022/08/18 11:31:48;;;;;;;;;;;;;;;30.96;39.45;95049.00;5156828;27;1051;-51
2022/08/18 11:34:18;;;;;;;;;;;;;;;30.87;38.16;95036.94;5156529;27;1091;-51
2022/08/18 11:36:53;;;;;;;;;;;;;;;30.89;37.69;95040.22;5156932;27;972;-51
2022/08/18 11:39:19;;;;;;;;;;;;;;;30.93;40.77;95031.09;5156408;27;1905;-50
2022/08/18 11:41:48;;;;;;;;;;;;;;;30.88;41.13;95036.63;5156624;27;1012;-49
2022/08/18 11:44:20;;;;;;;;;;;;;;;30.78;40.32;95036.75;5147161;27;1157;-51
2022/08/18 11:46:47;;;;;;;;;;;;;;;30.80;40.86;95026.25;5136134;27;960;-50
2022/08/18 11:49:27;;;;;;;;;;;;;;;30.85;40.02;95026.19;5135583;27;1096;-51
2022/08/18 11:51:55;;;;;;;;;;;;;;;30.92;42.15;95015.66;5135771;27;1087;-51
2022/08/18 11:54:30;;;;;;;;;;;;;;;30.91;40.52;95019.53;5135387;27;1039;-50
2022/08/18 11:57:15;;;;;;;;;;;;;;;30.94;39.32;95018.94;5135654;27;1044;-51
2022/08/18 11:59:41;;;;;;;;;;;;;;;30.95;40.23;95014.25;5135361;27;1307;-50
2022/08/18 12:02:09;;;;;;;;;;;;;;;30.88;38.67;95017.31;5135424;27;1021;-51
2022/08/18 12:04:41;;;;;;;;;;;;;;;30.91;41.25;94999.38;5135261;27;942;-51
2022/08/18 12:07:09;;;;;;;;;;;;;;;30.92;40.21;95009.31;5135299;27;1024;-51
2022/08/18 12:09:35;;;;;;;;;;;;;;;30.98;40.28;95002.63;5135415;27;1008;-50
2022/08/18 12:12:12;;;;;;;;;;;;;;;30.96;40.66;95004.81;5135540;27;1059;-51
2022/08/18 12:14:59;;;;;;;;;;;;;;;30.92;39.47;95006.53;5135106;27;1866;-50
2022/08/18 12:17:26;;;;;;;;;;;;;;;30.89;40.49;94999.66;5134562;27;1906;-50
2022/08/18 12:19:52;;;;;;;;;;;;;;;30.85;40.77;95003.31;5135214;27;969;-50
2022/08/18 12:22:20;;;;;;;;;;;;;;;30.86;41.82;94999.41;5135081;27;1201;-51
2022/08/18 12:24:46;;;;;;;;;;;;;;;30.90;40.14;95004.06;5135090;27;1036;-50
2022/08/18 12:27:14;;;;;;;;;;;;;;;30.91;40.35;95002.97;5134984;27;1048;-51
2022/08/18 12:29:40;;;;;;;;;;;;;;;30.99;40.61;94992.41;5134968;27;1003;-50
2022/08/18 12:32:06;;;;;;;;;;;;;;;31.06;39.27;94988.16;5134834;27;1086;-50
2022/08/18 12:34:32;;;;;;;;;;;;;;;31.14;40.01;94992.22;5134655;27;1066;-51
2022/08/18 12:37:02;;;;;;;;;;;;;;;31.07;39.73;94986.22;5134837;27;1032;-51
2022/08/18 12:39:29;;;;;;;;;;;;;;;31.07;39.43;94988.97;5134766;27;1048;-50
2022/08/18 12:41:55;;;;;;;;;;;;;;;31.11;39.79;94988.09;5134648;27;1031;-50
2022/08/18 12:44:22;;;;;;;;;;;;;;;31.03;39.75;94982.41;5144739;27;1160;-50
2022/08/18 12:46:48;;;;;;;;;;;;;;;31.01;39.67;94976.34;5155890;27;961;-50
2022/08/18 12:49:16;;;;;;;;;;;;;;;31.04;39.66;94973.84;5155163;27;1028;-51
2022/08/18 12:51:42;;;;;;;;;;;;;;;31.02;39.30;94977.97;5155344;27;1015;-50
2022/08/18 12:54:08;;;;;;;;;;;;;;;31.05;39.66;94964.41;5155229;27;961;-50
2022/08/18 12:56:34;;;;;;;;;;;;;;;31.09;39.30;94971.03;5155393;27;1044;-51
2022/08/18 12:59:02;;;;;;;;;;;;;;;31.13;37.23;94963.78;5155092;27;1914;-50
2022/08/18 13:01:28;;;;;;;;;;;;;;;31.17;39.79;94965.94;5155155;27;1020;-51
2022/08/18 13:03:54;;;;;;;;;;;;;;;31.13;39.18;94971.22;5155215;27;968;-51
2022/08/18 13:06:21;;;;;;;;;;;;;;;31.00;38.75;94969.19;5155080;27;1070;-51
2022/08/18 13:08:49;;;;;;;;;;;;;;;31.01;41.77;94968.06;5155047;27;1044;-50
2022/08/18 13:11:16;;;;;;;;;;;;;;;30.99;40.24;94962.03;5154938;27;1090;-51
2022/08/18 13:13:43;;;;;;;;;;;;;;;30.98;39.68;94961.22;5154832;27;1044;-51
2022/08/18 13:16:10;;;;;;;;;;;;;;;31.01;40.14;94949.56;5154796;27;1099;-51
2022/08/18 13:18:37;;;;;;;;;;;;;;;30.95;38.89;94948.00;5154827;27;1909;-51
2022/08/18 13:21:03;;;;;;;;;;;;;;;30.97;39.20;94944.94;5155025;27;1031;-50
2022/08/18 13:23:30;;;;;;;;;;;;;;;30.97;39.14;94943.00;5155124;27;979;-51
2022/08/18 13:25:58;;;;;;;;;;;;;;;30.90;40.40;94939.78;5136460;27;967;-51
2022/08/18 13:28:24;;;;;;;;;;;;;;;30.85;39.13;94943.41;5154897;27;975;-51